LFSB 211130Z 36006KT 330V040 9999 FEW021 04/M01 Q1033 NOSIG

ElémentsDécodage
LFSB Station météo située sur l'aérodrome de BALE Mulhouse
211130Z émis le 21 du mois à 11h30 UTC
36006KT vent du 360°, 06 noeuds
330V040 vent de direction variable entre 330° et 040°
9999 visibilité horizontale supérieure à 10 Km
FEW021 nuages rares (1/8 à 2/8) à 2100 pieds
04/M01 température 04°C, point de rosée -01°C
 soit une humidité relative de 70%
Q1033 la pression au niveau de la mer (QNH) est de 1033 hPa
NOSIG Pas de changement significatif prévu au cours des deux heures suivant l'heure de l'observation